Time;durP1;ratioP1;P1;durP2;ratioP2;P2;SDS_P1;SDS_P2;PMS_P1;PMS_P2;Temp;Humidity;BMP_temperature;BMP_pressure;BME280_temperature;BME280_humidity;BME280_pressure;Samples;Min_cycle;Max_cycle;Signal;HPM_P1;HPM_P2
2022/05/07 00:00:32;;;;;;;9.88;9.05;;;9.90;99.90;;;10.67;92.24;98502.81;5233742;28;20242;-57
2022/05/07 00:03:06;;;;;;;9.27;8.40;;;9.90;99.90;;;10.63;91.61;98495.72;5235093;28;20201;-54
2022/05/07 00:05:39;;;;;;;9.40;8.68;;;9.80;99.90;;;10.60;92.54;98505.75;5241557;28;20292;-53
2022/05/07 00:08:12;;;;;;;10.07;9.27;;;9.80;99.90;;;10.66;91.30;98505.28;5242559;28;20568;-56
2022/05/07 00:10:46;;;;;;;10.07;9.10;;;9.80;99.90;;;10.58;92.50;98502.19;5241115;28;20285;-57
2022/05/07 00:13:19;;;;;;;9.45;8.70;;;9.80;99.90;;;10.42;91.19;98504.53;5237765;28;20243;-57
2022/05/07 00:18:43;;;;;;;8.40;7.70;;;9.60;99.90;;;10.40;91.13;98493.31;5245440;28;20632;-54
2022/05/07 00:21:16;;;;;;;9.13;8.43;;;9.60;99.90;;;10.40;91.46;98498.41;5242847;28;20640;-53
2022/05/07 00:23:49;;;;;;;8.48;7.78;;;9.60;99.90;;;10.45;90.32;98494.50;5246086;28;20192;-57
2022/05/07 00:26:24;;;;;;;8.93;8.20;;;9.60;99.90;;;10.37;91.75;98499.97;5243481;28;20197;-53
2022/05/07 00:28:57;;;;;;;9.17;8.33;;;9.60;99.90;;;10.40;91.58;98486.50;5246168;28;20231;-55
2022/05/07 00:31:30;;;;;;;8.57;7.80;;;9.60;99.90;;;10.35;90.70;98488.75;5244741;28;20292;-55
2022/05/07 00:34:03;;;;;;;9.30;7.75;;;9.50;99.90;;;10.28;91.41;98488.25;5243413;28;20216;-51
2022/05/07 00:36:36;;;;;;;8.93;8.07;;;9.40;99.90;;;10.24;90.74;98479.44;5244063;28;20230;-55
2022/05/07 00:39:09;;;;;;;9.23;8.35;;;9.40;99.90;;;10.25;90.86;98483.78;5246372;28;20610;-54
2022/05/07 00:41:44;;;;;;;8.63;8.03;;;9.40;99.90;;;10.21;90.78;98479.22;5245106;28;20295;-56
2022/05/07 00:44:17;;;;;;;8.97;8.17;;;9.30;99.90;;;10.07;91.13;98485.06;5244515;28;20607;-56
2022/05/07 00:46:50;;;;;;;8.57;7.87;;;9.20;99.90;;;10.05;91.26;98481.53;5245549;28;20327;-55
2022/05/07 00:49:23;;;;;;;8.83;8.23;;;9.20;99.90;;;10.05;91.12;98481.53;5243676;28;20223;-55
2022/05/07 00:51:56;;;;;;;9.57;8.77;;;9.20;99.90;;;10.00;90.95;98481.19;5242823;28;20299;-56
2022/05/07 00:54:29;;;;;;;9.18;8.48;;;9.20;99.90;;;9.98;91.36;98480.19;5244709;28;20633;-55
2022/05/07 00:57:04;;;;;;;9.30;8.50;;;9.20;99.90;;;9.97;91.81;98467.34;5241198;28;20296;-58
2022/05/07 00:59:37;;;;;;;8.80;8.07;;;9.10;99.90;;;9.96;91.71;98476.66;5244259;28;20314;-55
2022/05/07 01:02:10;;;;;;;9.03;8.43;;;9.10;99.90;;;9.76;90.77;98477.84;5244523;28;20201;-55
2022/05/07 01:04:44;;;;;;;8.93;8.32;;;8.90;99.90;;;9.78;91.67;98475.38;5245138;28;20196;-57
2022/05/07 01:07:17;;;;;;;9.55;8.80;;;8.90;99.90;;;9.65;90.97;98479.63;5243250;28;20228;-54
2022/05/07 01:09:50;;;;;;;9.90;9.10;;;8.80;99.90;;;9.68;90.84;98484.06;5244888;28;20246;-57
2022/05/07 01:12:25;;;;;;;9.20;8.50;;;8.80;99.90;;;9.59;91.17;98484.31;5244920;28;20197;-55
2022/05/07 01:15:00;;;;;;;9.80;9.00;;;8.80;99.90;;;9.58;91.73;98481.63;5233429;28;20649;-54
2022/05/07 01:17:34;;;;;;;10.10;9.30;;;8.80;99.90;;;9.61;91.44;98476.75;5240922;28;20597;-57
2022/05/07 01:20:11;;;;;;;10.03;9.03;;;8.80;99.90;;;9.58;92.07;98481.63;5239002;28;20745;-53
2022/05/07 01:22:46;;;;;;;8.57;7.93;;;8.80;99.90;;;9.52;91.48;98476.09;5244626;28;20236;-57
2022/05/07 01:25:19;;;;;;;9.10;8.40;;;8.70;99.90;;;9.40;91.21;98471.00;5244039;28;20196;-57
2022/05/07 01:27:52;;;;;;;9.07;8.27;;;8.60;99.90;;;9.43;91.40;98472.09;5243004;28;20726;-57
2022/05/07 01:30:26;;;;;;;9.03;8.33;;;8.60;99.90;;;9.42;91.89;98469.47;5243073;28;20303;-56
2022/05/07 01:32:59;;;;;;;9.37;8.67;;;8.70;99.90;;;9.44;91.41;98475.53;5245843;28;20295;-57
2022/05/07 01:35:32;;;;;;;9.60;8.87;;;8.70;99.90;;;9.42;91.65;98469.47;5244713;28;20637;-57
2022/05/07 01:38:06;;;;;;;9.20;8.40;;;8.70;99.90;;;9.42;91.20;98479.66;5240282;28;20232;-57
2022/05/07 01:40:39;;;;;;;8.73;8.13;;;8.60;99.90;;;9.40;92.18;98469.34;5243819;28;20303;-57
2022/05/07 01:43:12;;;;;;;9.20;8.50;;;8.60;99.90;;;9.34;91.43;98471.47;5245487;28;20203;-57
2022/05/07 01:45:45;;;;;;;9.00;8.20;;;8.50;99.90;;;9.27;91.87;98464.16;5242249;28;20236;-57
2022/05/07 01:48:19;;;;;;;8.53;7.83;;;8.50;99.90;;;9.23;91.82;98467.25;5240548;28;20205;-56
2022/05/07 01:50:52;;;;;;;9.37;8.63;;;8.50;99.90;;;9.25;91.56;98466.59;5241448;28;20303;-56
2022/05/07 01:53:26;;;;;;;9.70;8.90;;;8.40;99.90;;;9.20;91.44;98475.56;5243943;28;20224;-57
2022/05/07 01:55:59;;;;;;;8.27;7.67;;;8.40;99.90;;;9.16;91.74;98470.16;5242887;28;20204;-54
2022/05/07 01:58:32;;;;;;;9.37;8.47;;;8.40;99.90;;;9.10;91.41;98464.56;5240867;28;20288;-56
2022/05/07 02:01:05;;;;;;;8.70;7.93;;;8.30;99.90;;;9.12;91.77;98470.69;5244459;28;20259;-51
2022/05/07 02:03:39;;;;;;;9.07;8.27;;;8.30;99.90;;;9.03;91.95;98474.34;5243915;28;20189;-52
2022/05/07 02:06:12;;;;;;;9.50;8.70;;;8.20;99.90;;;9.03;91.63;98469.25;5243166;28;20283;-55
2022/05/07 02:08:47;;;;;;;9.33;8.63;;;8.30;99.90;;;8.96;91.20;98464.47;5243747;28;20196;-56
2022/05/07 02:11:20;;;;;;;9.60;8.87;;;8.20;99.90;;;8.96;91.35;98471.25;5244184;28;20707;-55
2022/05/07 02:13:53;;;;;;;9.23;8.43;;;8.20;99.90;;;8.93;92.58;98466.81;5245073;28;20319;-55
2022/05/07 02:16:26;;;;;;;9.97;9.03;;;8.20;99.90;;;8.92;92.83;98465.00;5239718;28;20287;-54
2022/05/07 02:19:00;;;;;;;9.40;8.70;;;8.20;99.90;;;9.01;92.57;98464.81;5243333;28;20204;-57
2022/05/07 02:21:33;;;;;;;10.00;9.20;;;8.30;99.90;;;8.88;94.53;98465.59;5242275;28;20225;-56
2022/05/07 02:24:08;;;;;;;9.93;9.13;;;8.30;99.90;;;8.88;94.25;98470.69;5245144;28;20627;-57
2022/05/07 02:26:42;;;;;;;8.77;8.07;;;8.30;99.90;;;8.89;93.18;98463.91;5243129;28;20235;-57
2022/05/07 02:29:15;;;;;;;8.40;7.80;;;8.20;99.90;;;8.89;92.32;98464.78;5242194;28;20727;-57
2022/05/07 02:34:37;;;;;;;9.37;8.57;;;8.10;99.90;;;8.92;92.44;98470.13;5242827;28;20311;-57
2022/05/07 02:37:11;;;;;;;9.17;8.50;;;8.20;99.90;;;8.93;92.34;98471.03;5242916;28;20200;-57
2022/05/07 02:39:45;;;;;;;9.50;8.67;;;8.20;99.90;;;8.88;92.81;98472.34;5242716;28;20220;-57
2022/05/07 02:45:11;;;;;;;8.83;8.13;;;8.20;99.90;;;8.93;92.56;98469.38;5240013;28;20233;-57
2022/05/07 02:47:45;;;;;;;9.30;8.47;;;8.20;99.90;;;8.88;93.05;98468.13;5242921;28;20629;-51
2022/05/07 02:50:18;;;;;;;8.53;7.93;;;8.20;99.90;;;8.89;92.21;98461.38;5241510;28;20304;-55
2022/05/07 02:52:51;;;;;;;8.80;8.10;;;8.20;99.90;;;8.89;92.49;98467.34;5242207;28;20283;-53
2022/05/07 02:55:25;;;;;;;8.87;8.07;;;8.20;99.90;;;8.87;92.77;98466.38;5239361;28;20252;-54
2022/05/07 02:57:58;;;;;;;8.43;7.83;;;8.10;99.90;;;8.90;92.08;98471.69;5237013;28;20228;-53
2022/05/07 03:00:31;;;;;;;8.53;7.93;;;8.10;99.90;;;8.90;92.18;98471.69;5240640;28;20717;-55
2022/05/07 03:03:04;;;;;;;8.90;8.20;;;8.10;99.90;;;8.93;91.43;98466.81;5242016;28;20287;-57
2022/05/07 03:05:38;;;;;;;8.93;8.23;;;8.10;99.90;;;8.93;91.33;98477.00;5242968;28;20193;-57
2022/05/07 03:08:11;;;;;;;9.47;8.77;;;8.10;99.90;;;8.93;91.92;98477.00;5240878;28;20254;-54
2022/05/07 03:10:45;;;;;;;11.70;10.70;;;8.20;99.90;;;8.90;93.41;98475.88;5239279;28;20319;-57
2022/05/07 03:13:18;;;;;;;10.73;9.93;;;8.20;99.90;;;8.97;92.94;98475.56;5243970;28;20291;-57
2022/05/07 03:15:52;;;;;;;11.70;10.60;;;8.20;99.90;;;8.94;92.72;98483.88;5242409;28;20692;-55
2022/05/07 03:18:25;;;;;;;10.60;9.50;;;8.10;99.90;;;8.92;93.41;98482.88;5240637;28;20204;-57
2022/05/07 03:20:59;;;;;;;11.33;10.23;;;8.00;99.90;;;8.82;93.92;98472.78;5239634;28;20224;-57
2022/05/07 03:23:32;;;;;;;13.63;10.87;;;8.10;99.90;;;8.85;94.46;98478.09;5242106;28;20291;-56
2022/05/07 03:26:06;;;;;;;13.17;11.77;;;8.10;99.90;;;8.87;94.67;98476.56;5243621;28;20224;-57
2022/05/07 03:28:40;;;;;;;14.80;12.20;;;8.10;99.90;;;8.79;95.59;98472.56;5240089;28;20265;-57
2022/05/07 03:31:13;;;;;;;15.33;12.30;;;8.10;99.90;;;8.79;95.77;98472.56;5241352;28;20719;-57
2022/05/07 03:33:47;;;;;;;12.63;11.57;;;8.10;99.90;;;8.71;94.54;98469.44;5242652;28;20721;-56
2022/05/07 03:36:20;;;;;;;13.50;12.17;;;7.90;99.90;;;8.68;95.18;98473.44;5237231;28;20304;-55
2022/05/07 03:38:53;;;;;;;12.70;11.57;;;7.90;99.90;;;8.64;95.90;98472.31;5241914;28;20660;-56
2022/05/07 03:41:28;;;;;;;14.07;12.27;;;7.90;99.90;;;8.66;96.13;98472.41;5240818;28;20295;-56
2022/05/07 03:44:01;;;;;;;12.80;11.60;;;8.00;99.90;;;8.70;95.53;98482.97;5239352;28;22099;-58
2022/05/07 03:46:34;;;;;;;13.27;11.93;;;7.90;99.90;;;8.71;95.47;98478.75;5241331;28;20247;-57
2022/05/07 03:49:07;;;;;;;12.93;11.27;;;7.90;99.90;;;8.59;94.18;98475.28;5242177;28;20211;-57
2022/05/07 03:54:27;;;;;;;12.73;11.53;;;7.80;99.90;;;8.59;94.43;98477.84;5220894;28;20232;-57
2022/05/07 03:57:02;;;;;;;11.90;10.80;;;7.80;99.90;;;8.54;95.25;98475.81;5241256;28;20204;-56
2022/05/07 03:59:35;;;;;;;11.33;10.23;;;7.70;99.90;;;8.56;94.92;98474.28;5245187;28;20306;-57
2022/05/07 04:02:08;;;;;;;10.73;9.83;;;7.80;99.90;;;8.47;94.84;98483.78;5243751;28;20327;-56
2022/05/07 04:04:42;;;;;;;10.97;9.90;;;7.70;99.90;;;8.44;95.18;98490.28;5247539;28;20203;-57
2022/05/07 04:07:15;;;;;;;11.63;10.40;;;7.70;99.90;;;8.45;94.62;98487.88;5245402;28;20201;-57
2022/05/07 04:09:51;;;;;;;10.90;9.90;;;7.70;99.90;;;8.53;93.63;98481.69;5245366;28;20311;-57
2022/05/07 04:12:26;;;;;;;16.27;10.73;;;7.70;99.90;;;8.47;93.26;98483.78;5243009;28;20239;-57
2022/05/07 04:15:00;;;;;;;11.53;10.50;;;7.70;99.90;;;8.41;93.79;98488.41;5244591;28;20750;-57
2022/05/07 04:17:33;;;;;;;27.77;11.37;;;7.50;99.90;;;8.39;93.48;98484.88;5245257;28;20224;-55
2022/05/07 04:20:07;;;;;;;11.80;10.70;;;7.50;99.90;;;8.43;94.23;98486.88;5243007;28;20232;-58
2022/05/07 04:22:40;;;;;;;11.60;10.60;;;7.60;99.90;;;8.41;95.28;98493.50;5243994;28;20204;-59
2022/05/07 04:25:13;;;;;;;12.53;11.20;;;7.70;99.90;;;8.47;94.94;98485.44;5244825;28;20203;-59
2022/05/07 04:27:47;;;;;;;11.60;10.57;;;7.70;99.90;;;8.46;94.79;98492.19;5243935;28;20235;-58
2022/05/07 04:30:22;;;;;;;11.10;10.20;;;7.70;99.90;;;8.54;94.23;98483.47;5245565;28;20310;-58
2022/05/07 04:32:56;;;;;;;11.63;10.53;;;7.70;99.90;;;8.61;93.71;98486.47;5244900;28;20238;-56
2022/05/07 04:35:29;;;;;;;10.27;9.37;;;7.80;99.90;;;8.61;92.52;98491.56;5246189;28;20711;-57
2022/05/07 04:38:02;;;;;;;10.67;9.67;;;7.80;99.90;;;8.66;92.68;98500.44;5242768;28;20208;-57
2022/05/07 04:40:35;;;;;;;10.97;10.07;;;7.80;99.90;;;8.69;92.36;98496.47;5241958;28;20311;-58
2022/05/07 04:43:11;;;;;;;10.37;9.57;;;7.90;99.90;;;8.80;91.88;98499.81;5246716;28;20239;-58
2022/05/07 04:45:44;;;;;;;10.47;9.57;;;7.90;99.90;;;8.60;91.17;98490.69;5242024;28;20201;-58
2022/05/07 04:48:17;;;;;;;10.50;9.50;;;7.80;99.90;;;8.49;91.30;98502.59;5244135;28;20226;-57
2022/05/07 04:50:50;;;;;;;10.27;9.50;;;7.70;99.90;;;8.68;91.45;98498.91;5244311;28;20307;-56
2022/05/07 04:53:23;;;;;;;9.50;8.70;;;7.90;99.90;;;8.80;91.54;98499.81;5245262;28;20730;-55
2022/05/07 04:55:56;;;;;;;10.40;9.50;;;8.00;99.90;;;8.90;91.44;98502.28;5244835;28;20327;-57
2022/05/07 04:58:30;;;;;;;10.60;9.77;;;8.10;99.90;;;8.82;90.27;98503.38;5244854;28;20254;-58
2022/05/07 05:01:04;;;;;;;10.43;9.63;;;8.10;99.90;;;8.89;91.10;98495.38;5244052;28;20290;-55
2022/05/07 05:03:37;;;;;;;10.53;9.63;;;8.00;99.90;;;8.97;91.55;98495.97;5246249;28;20283;-57
2022/05/07 05:06:10;;;;;;;10.00;9.23;;;8.20;99.90;;;9.10;92.32;98505.38;5245519;28;20283;-55
2022/05/07 05:08:43;;;;;;;10.33;9.43;;;8.30;99.90;;;9.20;91.62;98506.16;5246694;28;20224;-56
2022/05/07 05:11:16;;;;;;;10.67;9.80;;;8.40;99.90;;;9.29;91.24;98508.50;5242159;28;20244;-56
2022/05/07 05:13:50;;;;;;;10.37;9.50;;;8.50;99.90;;;9.42;90.43;98510.28;5238815;28;20251;-53
2022/05/07 05:16:24;;;;;;;10.00;9.30;;;8.60;99.90;;;9.52;89.69;98512.69;5244551;28;20683;-57
2022/05/07 05:18:57;;;;;;;10.10;9.30;;;8.60;99.90;;;9.74;89.45;98515.13;5242824;28;20200;-55
2022/05/07 05:21:30;;;;;;;10.20;9.30;;;8.90;99.90;;;9.91;87.89;98514.63;5243674;28;20224;-57
2022/05/07 05:24:03;;;;;;;9.90;9.13;;;9.10;99.90;;;10.08;85.73;98507.28;5241942;28;20296;-56
2022/05/07 05:26:37;;;;;;;9.43;8.73;;;9.20;99.90;;;10.30;86.95;98515.69;5239662;28;20196;-55
2022/05/07 05:29:11;;;;;;;10.40;9.60;;;9.40;99.90;;;10.73;83.79;98518.59;5235532;28;20251;-56
2022/05/07 05:31:44;;;;;;;9.90;9.10;;;9.80;99.90;;;11.20;82.33;98515.69;5245018;28;20296;-52
2022/05/07 05:34:17;;;;;;;10.38;9.55;;;10.20;99.90;;;11.72;81.33;98526.72;5241536;28;20201;-56
2022/05/07 05:36:50;;;;;;;9.68;8.95;;;10.60;99.90;;;12.11;78.67;98524.03;5244805;28;20303;-56
2022/05/07 05:39:23;;;;;;;9.65;8.85;;;11.00;99.90;;;12.33;77.06;98523.66;5243014;28;20216;-60
2022/05/07 05:41:58;;;;;;;9.60;8.88;;;11.20;99.90;;;12.70;76.00;98515.59;5245503;28;20232;-55
2022/05/07 05:44:32;;;;;;;9.43;8.73;;;11.50;99.90;;;12.67;73.89;98521.44;5243984;28;20203;-54
2022/05/07 05:47:06;;;;;;;8.65;7.95;;;11.50;99.90;;;12.56;74.59;98522.47;5243686;28;20296;-56
2022/05/07 05:49:39;;;;;;;9.27;8.57;;;11.50;99.90;;;12.91;74.71;98527.16;5243646;28;20303;-52
2022/05/07 05:52:12;;;;;;;8.40;7.75;;;11.60;99.90;;;13.20;72.80;98527.94;5242789;28;20196;-55
2022/05/07 05:54:46;;;;;;;9.48;8.77;;;11.60;99.90;;;13.61;71.46;98525.19;5240948;28;20232;-53
2022/05/07 05:57:19;;;;;;;9.52;8.82;;;12.20;99.90;;;14.05;69.72;98518.13;5238491;28;20242;-58
2022/05/07 05:59:54;;;;;;;8.80;8.10;;;12.60;99.90;;;14.19;68.38;98519.75;5243140;28;20776;-57
2022/05/07 06:02:27;;;;;;;9.07;8.38;;;12.70;99.90;;;14.69;67.49;98520.69;5241463;28;20651;-57
2022/05/07 06:05:01;;;;;;;8.90;8.20;;;12.90;99.90;;;14.69;66.90;98518.13;5244467;28;20226;-57
2022/05/07 06:07:34;;;;;;;8.60;8.00;;;13.10;99.90;;;14.52;68.59;98512.97;5239596;28;20216;-57
2022/05/07 06:10:08;;;;;;;9.50;8.70;;;13.10;99.90;;;14.91;66.30;98522.66;5240726;28;20225;-57
2022/05/07 06:12:41;;;;;;;8.90;8.18;;;13.30;99.90;;;15.34;64.16;98510.25;5240116;28;20287;-57
2022/05/07 06:15:15;;;;;;;9.60;8.88;;;13.40;99.90;;;15.29;64.20;98511.72;5236489;28;21328;-57
2022/05/07 06:17:48;;;;;;;9.63;8.82;;;13.30;99.90;;;15.60;64.50;98508.94;5239097;28;20306;-57
2022/05/07 06:20:21;;;;;;;9.88;9.07;;;13.50;99.90;;;16.13;62.99;98513.13;5238407;28;20216;-57
2022/05/07 06:22:59;;;;;;;10.55;9.85;;;13.90;99.90;;;16.46;62.58;98517.19;5239277;28;20201;-56
2022/05/07 06:28:23;;;;;;;10.77;9.98;;;14.60;99.90;;;16.85;62.41;98518.06;5236946;28;20200;-56
2022/05/07 06:30:59;;;;;;;11.50;10.60;;;15.10;99.90;;;17.42;60.84;98518.72;5246076;28;20247;-57
2022/05/07 06:33:32;;;;;;;10.32;9.52;;;15.50;99.90;;;17.83;59.16;98516.97;5232807;28;20228;-57
2022/05/07 06:36:07;;;;;;;11.35;10.48;;;15.90;99.90;;;17.71;60.44;98514.75;5243139;28;20246;-58
2022/05/07 06:38:40;;;;;;;11.93;10.93;;;15.70;99.90;;;18.04;58.89;98514.31;5242277;28;20200;-57
2022/05/07 06:41:13;;;;;;;12.07;11.18;;;16.20;99.90;;;18.57;57.68;98517.13;5238662;28;20252;-58
2022/05/07 06:43:46;;;;;;;12.50;11.50;;;16.60;99.90;;;18.57;57.00;98509.34;5242865;28;20228;-56
2022/05/07 06:46:21;;;;;;;11.38;10.48;;;16.70;99.90;;;19.06;55.54;98512.00;5236770;28;20806;-58
2022/05/07 06:48:54;;;;;;;11.65;10.68;;;17.10;99.90;;;19.25;54.73;98510.88;5245995;28;20203;-57
2022/05/07 06:51:28;;;;;;;11.88;11.05;;;17.40;99.90;;;19.67;54.11;98510.56;5240395;28;20312;-58
2022/05/07 06:54:01;;;;;;;12.02;10.98;;;17.70;99.90;;;19.79;52.83;98510.06;5235467;28;20560;-56
2022/05/07 06:56:34;;;;;;;12.73;11.52;;;17.90;99.90;;;19.98;53.16;98519.31;5242071;28;20259;-57
2022/05/07 06:59:07;;;;;;;11.93;10.98;;;18.00;99.90;;;20.10;52.64;98509.28;5229703;28;20291;-57
2022/05/07 07:01:42;;;;;;;12.52;11.30;;;18.00;99.90;;;20.20;52.56;98506.13;5244516;28;20692;-58
2022/05/07 07:04:15;;;;;;;12.65;11.65;;;18.00;99.90;;;20.50;51.74;98514.75;5238847;28;20218;-58
2022/05/07 07:06:49;;;;;;;12.57;11.48;;;18.20;99.90;;;20.64;50.59;98513.47;5239999;28;20291;-58
2022/05/07 07:09:23;;;;;;;12.45;11.55;;;18.40;99.90;;;20.40;51.22;98508.41;5235623;28;20216;-58
2022/05/07 07:11:56;;;;;;;13.57;12.48;;;18.30;99.90;;;20.14;50.82;98510.25;5239173;28;20236;-58
2022/05/07 07:14:29;;;;;;;12.02;10.95;;;18.60;99.40;;;20.28;51.17;98502.88;5242300;28;20229;-58
2022/05/07 07:17:04;;;;;;;11.32;10.52;;;18.60;99.50;;;20.93;48.27;98509.94;5236242;28;20248;-58
2022/05/07 07:19:39;;;;;;;10.82;9.93;;;18.90;98.10;;;21.21;47.00;98509.78;5238774;28;20297;-58
2022/05/07 07:22:12;;;;;;;11.15;10.13;;;19.20;97.10;;;21.24;46.71;98513.31;5241012;28;20230;-57
2022/05/07 07:24:45;;;;;;;11.48;10.57;;;19.20;96.70;;;20.85;48.01;98508.84;5236073;28;20663;-58
2022/05/07 07:27:18;;;;;;;10.55;9.75;;;19.00;97.40;;;21.42;47.81;98518.13;5239831;28;20285;-58
2022/05/07 07:29:52;;;;;;;10.93;10.07;;;19.20;97.80;;;21.82;46.07;98503.47;5242573;28;20248;-58
2022/05/07 07:32:26;;;;;;;10.30;9.45;;;19.50;96.80;;;21.72;46.07;98501.50;5243740;28;20287;-58
2022/05/07 07:34:59;;;;;;;10.32;9.45;;;19.30;96.90;;;22.04;45.04;98500.50;5232634;28;20291;-58
2022/05/07 07:37:33;;;;;;;9.98;9.18;;;19.40;96.70;;;21.75;46.57;98499.00;5240901;28;20243;-57
2022/05/07 07:40:08;;;;;;;10.68;9.85;;;19.50;97.00;;;22.27;45.03;98501.03;5235671;28;20225;-58
2022/05/07 07:42:41;;;;;;;11.00;9.90;;;19.90;95.80;;;22.32;44.22;98495.94;5240816;28;20199;-58
2022/05/07 07:48:08;;;;;;;12.60;11.70;;;20.10;95.70;;;23.06;42.94;98492.13;5238640;28;20283;-57
2022/05/07 07:50:42;;;;;;;18.20;16.70;;;20.70;94.50;;;23.45;41.81;98501.50;5238661;28;20216;-57
2022/05/07 07:53:15;;;;;;;14.45;13.40;;;20.90;93.80;;;23.54;42.29;98483.38;5241697;28;20189;-58
2022/05/07 07:55:48;;;;;;;11.80;10.80;;;21.00;93.80;;;23.10;42.93;98488.75;5234797;28;20228;-58
2022/05/07 07:58:21;;;;;;;10.07;9.30;;;20.80;94.20;;;23.31;42.90;98483.88;5237618;28;20257;-58
2022/05/07 08:00:54;;;;;;;9.90;9.10;;;21.00;94.20;;;23.32;43.66;98480.44;5237702;28;20314;-56
2022/05/07 08:03:29;;;;;;;9.93;9.13;;;21.00;94.40;;;23.41;43.59;98478.81;5236706;28;20196;-58
2022/05/07 08:06:02;;;;;;;10.45;9.45;;;21.40;93.90;;;23.31;43.49;98483.88;5240685;28;20199;-57
2022/05/07 08:11:41;;;;;;;9.45;8.48;;;21.30;93.10;;;23.52;43.33;98472.03;5240486;28;20224;-56
2022/05/07 08:14:15;;;;;;;9.85;9.13;;;21.60;93.50;;;22.93;43.93;98473.63;5238906;28;20192;-57
2022/05/07 08:16:48;;;;;;;9.07;8.48;;;21.30;93.50;;;23.26;43.67;98475.09;5237647;28;20282;-57
2022/05/07 08:19:22;;;;;;;10.35;9.55;;;21.50;93.20;;;23.14;43.51;98477.50;5240851;28;20221;-55
2022/05/07 08:21:55;;;;;;;9.68;8.88;;;21.70;92.80;;;23.29;43.65;98474.25;5242170;28;20199;-55
2022/05/07 08:24:28;;;;;;;9.48;8.75;;;21.60;93.30;;;23.48;42.86;98471.09;5238508;28;20201;-57
2022/05/07 08:27:02;;;;;;;9.38;8.63;;;21.70;92.70;;;23.49;42.67;98478.06;5243648;28;20295;-55
2022/05/07 08:29:35;;;;;;;9.20;8.45;;;22.10;91.80;;;23.51;42.45;98471.16;5244591;28;20331;-56
2022/05/07 08:32:09;;;;;;;9.43;8.57;;;22.10;91.70;;;23.44;42.67;98471.94;5237273;28;20287;-56
2022/05/07 08:34:43;;;;;;;9.73;8.93;;;22.10;92.10;;;23.42;42.62;98471.00;5237008;28;20196;-55
2022/05/07 08:37:17;;;;;;;8.98;8.25;;;22.30;91.60;;;23.65;42.52;98466.16;5235761;28;20311;-55
2022/05/07 08:39:50;;;;;;;8.85;8.15;;;22.50;91.20;;;23.81;41.92;98470.78;5240855;28;20217;-56
2022/05/07 08:42:23;;;;;;;9.13;8.32;;;22.60;90.70;;;23.90;41.90;98469.16;5240967;28;20196;-56
2022/05/07 08:44:57;;;;;;;8.23;7.55;;;22.60;91.00;;;23.99;41.72;98458.81;5248126;28;20369;-55
2022/05/07 08:47:31;;;;;;;8.57;7.78;;;22.60;91.20;;;24.16;41.71;98462.53;5243331;28;20449;-56
2022/05/07 08:50:09;;;;;;;8.57;7.85;;;22.90;90.60;;;24.36;40.27;98464.53;5244744;28;20247;-55
2022/05/07 08:52:44;;;;;;;8.50;7.80;;;23.00;90.10;;;24.02;39.90;98464.09;5244327;28;20237;-56
2022/05/07 08:55:19;;;;;;;8.32;7.53;;;22.50;89.40;;;24.23;40.86;98459.13;5239676;28;20690;-56
2022/05/07 08:57:55;;;;;;;8.30;7.50;;;22.70;90.30;;;24.20;39.06;98453.84;5240401;28;20212;-55
2022/05/07 09:00:29;;;;;;;6.75;6.25;;;23.20;86.50;;;23.85;39.20;98457.75;5243853;28;20332;-54
2022/05/07 09:03:03;;;;;;;5.00;4.60;;;23.00;85.90;;;24.02;35.73;98453.66;5240932;28;20247;-56
2022/05/07 09:05:39;;;;;;;4.90;4.50;;;23.00;79.10;;;23.81;35.40;98449.88;5245694;28;20200;-56
2022/05/07 09:08:12;;;;;;;4.35;4.03;;;22.90;77.80;;;23.95;35.81;98441.34;5240929;28;20198;-56
2022/05/07 09:10:45;;;;;;;3.90;3.60;;;22.90;79.90;;;24.17;34.97;98446.00;5242636;28;20224;-54
2022/05/07 09:13:19;;;;;;;4.93;4.10;;;23.20;77.60;;;24.20;34.12;98432.97;5237102;28;20247;-58
2022/05/07 09:15:55;;;;;;;5.10;3.67;;;23.50;75.40;;;24.37;34.78;98445.34;5246956;28;20201;-57
2022/05/07 09:18:28;;;;;;;4.40;4.00;;;23.80;76.30;;;24.05;34.97;98438.88;5241226;28;20205;-58
2022/05/07 09:21:19;;;;;;;4.88;4.00;;;23.40;76.60;;;24.04;34.68;98433.66;5244421;28;20307;-58
2022/05/07 09:24:03;;;;;;;3.45;3.22;;;23.30;76.40;;;24.20;33.76;98427.75;5244514;28;20189;-58
2022/05/07 09:26:39;;;;;;;3.55;2.90;;;23.30;74.90;;;24.15;32.77;98434.66;5240304;28;20624;-58
2022/05/07 09:29:15;;;;;;;3.20;2.90;;;23.40;73.60;;;24.10;34.10;98435.47;5242414;28;20212;-58
2022/05/07 09:31:48;;;;;;;3.20;2.95;;;23.30;74.40;;;24.25;33.40;98435.63;5240941;28;20690;-58
2022/05/07 09:37:17;;;;;;;4.22;3.47;;;23.50;70.20;;;23.67;33.50;98427.03;5247307;28;20239;-58
2022/05/07 09:39:52;;;;;;;3.30;2.95;;;23.00;72.80;;;23.67;34.70;98427.91;5242158;28;20220;-57
2022/05/07 09:42:25;;;;;;;3.92;3.00;;;23.20;74.60;;;23.96;34.54;98437.91;5237290;28;20282;-57
2022/05/07 09:45:00;;;;;;;3.00;2.72;;;23.40;73.90;;;24.01;33.77;98421.44;5239823;28;20264;-57
2022/05/07 09:47:34;;;;;;;4.38;3.03;;;23.30;72.50;;;23.33;32.03;98414.34;5239925;28;20275;-54
2022/05/07 09:50:23;;;;;;;2.97;2.72;;;22.50;70.10;;;23.18;32.93;98419.34;5239744;28;20224;-57
2022/05/07 09:58:41;;;;;;;3.20;2.83;;;21.80;75.10;;;22.75;34.64;98423.78;5244841;28;20304;-58
2022/05/07 10:01:29;;;;;;;4.03;3.40;;;21.80;74.30;;;22.80;35.03;98419.50;5239561;28;20680;-53
2022/05/07 10:04:17;;;;;;;3.70;3.40;;;22.00;74.70;;;22.98;34.58;98415.50;5237992;28;20690;-57
2022/05/07 10:07:07;;;;;;;5.43;3.40;;;22.20;73.70;;;23.04;34.43;98411.28;5239171;28;20695;-56
2022/05/07 10:10:02;;;;;;;3.85;3.55;;;22.30;73.70;;;23.41;33.74;98406.66;5239413;28;20270;-57
2022/05/07 10:12:36;;;;;;;5.32;4.10;;;22.80;73.30;;;23.42;33.62;98402.28;5238575;28;20196;-58
2022/05/07 10:15:12;;;;;;;4.35;3.95;;;22.60;72.50;;;23.29;35.96;98403.81;5239507;28;20623;-58
2022/05/07 10:17:45;;;;;;;4.07;3.60;;;22.50;75.90;;;23.48;34.56;98397.16;5239398;28;20235;-57
2022/05/07 10:20:23;;;;;;;4.78;4.38;;;22.60;74.80;;;23.63;33.79;98396.50;5235292;28;20582;-57
2022/05/07 10:22:57;;;;;;;4.30;3.90;;;22.90;72.40;;;23.79;33.90;98406.34;5238198;28;20624;-58
2022/05/07 10:25:31;;;;;;;4.25;3.95;;;23.20;72.50;;;23.66;33.52;98402.63;5246964;28;20263;-57
2022/05/07 10:28:10;;;;;;;3.63;3.33;;;23.00;72.20;;;23.49;32.99;98404.13;5245383;28;20583;-58
2022/05/07 10:30:48;;;;;;;4.93;3.50;;;22.80;70.50;;;23.03;34.16;98400.81;5245141;28;20234;-58
2022/05/07 10:33:22;;;;;;;3.90;3.60;;;22.30;72.90;;;22.70;35.27;98407.19;5239944;28;20262;-57
2022/05/07 10:35:58;;;;;;;3.95;3.60;;;21.90;75.50;;;22.69;36.09;98402.81;5238922;28;20659;-58
2022/05/07 10:38:37;;;;;;;4.18;3.70;;;21.70;76.40;;;22.71;36.43;98401.13;5241582;28;20270;-58
2022/05/07 10:41:24;;;;;;;4.35;3.70;;;21.80;76.70;;;22.66;37.38;98394.94;5238750;28;20247;-56
2022/05/07 10:44:06;;;;;;;4.20;3.80;;;21.70;78.60;;;22.80;37.41;98385.63;5245579;28;20294;-57
2022/05/07 10:46:45;;;;;;;4.50;4.10;;;22.00;78.60;;;22.93;35.94;98392.81;5241359;28;20192;-58
2022/05/07 10:49:19;;;;;;;4.43;4.00;;;22.20;75.50;;;22.92;34.92;98391.06;5235972;28;20237;-56
2022/05/07 10:52:04;;;;;;;5.30;4.50;;;22.10;74.30;;;22.70;34.61;98384.59;5242749;28;21476;-57
2022/05/07 10:54:37;;;;;;;4.30;4.00;;;22.00;73.30;;;22.70;35.60;98382.00;5241231;28;20231;-58
2022/05/07 10:57:12;;;;;;;4.15;3.80;;;21.90;75.30;;;23.11;34.51;98384.44;5237920;28;20188;-58
2022/05/07 10:59:45;;;;;;;4.63;4.03;;;22.30;73.70;;;22.67;34.91;98384.56;5238860;28;20230;-57
2022/05/07 11:02:19;;;;;;;3.88;3.58;;;22.10;73.50;;;22.89;35.82;98379.69;5244606;28;20232;-58
2022/05/07 11:04:53;;;;;;;3.78;3.47;;;22.10;75.30;;;22.91;34.89;98365.81;5238322;28;20197;-57
2022/05/07 11:07:27;;;;;;;4.38;3.75;;;22.10;73.80;;;22.82;33.92;98373.50;5241202;28;20255;-58
2022/05/07 11:10:00;;;;;;;5.40;3.80;;;22.00;72.70;;;22.68;34.61;98369.78;5242851;28;20647;-57
2022/05/07 11:12:36;;;;;;;4.05;3.70;;;21.70;73.80;;;22.39;35.62;98371.88;5239753;28;20659;-58
2022/05/07 11:15:12;;;;;;;5.03;3.70;;;21.50;75.20;;;22.32;36.28;98364.78;5246038;28;20214;-57
2022/05/07 11:17:45;;;;;;;4.00;3.70;;;21.40;76.20;;;22.33;36.53;98367.44;5239209;28;20223;-56